sensor_id;sensor_type;location;lat;lon;timestamp;P1;durP1;ratioP1;P2;durP2;ratioP2
74483;SDS011;62942;52.462;10.846;2023-05-16T00:00:16;9.7;;;16;;
74483;SDS011;62942;52.462;10.846;2023-05-16T00:01:26;9.5;;;12.8;;
74483;SDS011;62942;52.462;10.846;2023-05-16T00:02:36;9.4;;;12.7;;
74483;SDS011;62942;52.462;10.846;2023-05-16T00:03:36;9.1;;;12.8;;
74483;SDS011;62942;52.462;10.846;2023-05-16T00:04:36;9.4;;;13.6;;
74483;SDS011;62942;52.462;10.846;2023-05-16T00:05:46;9.4;;;12.6;;
74483;SDS011;62942;52.462;10.846;2023-05-16T00:06:46;9.3;;;12.6;;
74483;SDS011;62942;52.462;10.846;2023-05-16T00:07:46;9.6;;;13.2;;
74483;SDS011;62942;52.462;10.846;2023-05-16T00:08:56;9.5;;;14.3;;
74483;SDS011;62942;52.462;10.846;2023-05-16T00:10:06;9.2;;;12.1;;
74483;SDS011;62942;52.462;10.846;2023-05-16T00:11:16;9.8;;;13.1;;
74483;SDS011;62942;52.462;10.846;2023-05-16T00:12:26;9.4;;;12.6;;
74483;SDS011;62942;52.462;10.846;2023-05-16T00:13:27;9.2;;;13.6;;
74483;SDS011;62942;52.462;10.846;2023-05-16T00:14:26;9.1;;;12.2;;
74483;SDS011;62942;52.462;10.846;2023-05-16T00:15:36;9.3;;;13.7;;
74483;SDS011;62942;52.462;10.846;2023-05-16T00:16:46;9.7;;;14;;
74483;SDS011;62942;52.462;10.846;2023-05-16T00:17:46;9.7;;;13.4;;
74483;SDS011;62942;52.462;10.846;2023-05-16T00:18:46;9.4;;;13.8;;
74483;SDS011;62942;52.462;10.846;2023-05-16T00:19:56;9.3;;;13.6;;
74483;SDS011;62942;52.462;10.846;2023-05-16T00:20:56;9.5;;;12.6;;
74483;SDS011;62942;52.462;10.846;2023-05-16T00:21:56;10.2;;;14.1;;
74483;SDS011;62942;52.462;10.846;2023-05-16T00:23:06;9.4;;;13.8;;
74483;SDS011;62942;52.462;10.846;2023-05-16T00:24:06;9.4;;;13.4;;
74483;SDS011;62942;52.462;10.846;2023-05-16T00:25:16;9.3;;;12.3;;
74483;SDS011;62942;52.462;10.846;2023-05-16T00:26:26;9.5;;;14;;
74483;SDS011;62942;52.462;10.846;2023-05-16T00:27:26;9.5;;;13.3;;
74483;SDS011;62942;52.462;10.846;2023-05-16T00:28:26;9.1;;;11.7;;
74483;SDS011;62942;52.462;10.846;2023-05-16T00:29:36;9.1;;;12.8;;
74483;SDS011;62942;52.462;10.846;2023-05-16T00:30:36;9.2;;;12.2;;
74483;SDS011;62942;52.462;10.846;2023-05-16T00:31:46;9.3;;;14.5;;
74483;SDS011;62942;52.462;10.846;2023-05-16T00:32:56;9.4;;;13.6;;
74483;SDS011;62942;52.462;10.846;2023-05-16T00:34:06;9.3;;;12.2;;
74483;SDS011;62942;52.462;10.846;2023-05-16T00:35:06;9.1;;;13.6;;
74483;SDS011;62942;52.462;10.846;2023-05-16T00:36:16;9.1;;;12.6;;
74483;SDS011;62942;52.462;10.846;2023-05-16T00:37:26;8.8;;;11.4;;
74483;SDS011;62942;52.462;10.846;2023-05-16T00:38:36;9.1;;;12;;
74483;SDS011;62942;52.462;10.846;2023-05-16T00:39:36;9.1;;;11.9;;
74483;SDS011;62942;52.462;10.846;2023-05-16T00:40:46;8.3;;;11.3;;
74483;SDS011;62942;52.462;10.846;2023-05-16T00:41:56;8.5;;;12;;
74483;SDS011;62942;52.462;10.846;2023-05-16T00:43:06;8.3;;;11.9;;
74483;SDS011;62942;52.462;10.846;2023-05-16T00:44:16;7.7;;;10.7;;
74483;SDS011;62942;52.462;10.846;2023-05-16T00:45:16;7.5;;;10.1;;
74483;SDS011;62942;52.462;10.846;2023-05-16T00:46:26;7.3;;;11.4;;
74483;SDS011;62942;52.462;10.846;2023-05-16T00:47:36;7.5;;;10.6;;
74483;SDS011;62942;52.462;10.846;2023-05-16T00:48:46;6.9;;;10;;
74483;SDS011;62942;52.462;10.846;2023-05-16T00:49:56;6.7;;;9;;
74483;SDS011;62942;52.462;10.846;2023-05-16T00:51:06;6.5;;;9.8;;
74483;SDS011;62942;52.462;10.846;2023-05-16T00:52:06;6.5;;;9.4;;
74483;SDS011;62942;52.462;10.846;2023-05-16T00:53:16;6.2;;;9.5;;
74483;SDS011;62942;52.462;10.846;2023-05-16T00:54:16;5.7;;;9.4;;
74483;SDS011;62942;52.462;10.846;2023-05-16T00:55:16;6.2;;;8.7;;
74483;SDS011;62942;52.462;10.846;2023-05-16T00:56:26;5.5;;;7.4;;
74483;SDS011;62942;52.462;10.846;2023-05-16T00:57:36;5.6;;;7.9;;
74483;SDS011;62942;52.462;10.846;2023-05-16T00:58:36;5.7;;;7.7;;
74483;SDS011;62942;52.462;10.846;2023-05-16T00:59:46;5.8;;;9.4;;
74483;SDS011;62942;52.462;10.846;2023-05-16T01:00:46;5.2;;;8;;
74483;SDS011;62942;52.462;10.846;2023-05-16T01:01:56;5.5;;;8.7;;
74483;SDS011;62942;52.462;10.846;2023-05-16T01:02:56;5;;;8.1;;
74483;SDS011;62942;52.462;10.846;2023-05-16T01:04:06;5.4;;;7.9;;
74483;SDS011;62942;52.462;10.846;2023-05-16T01:05:06;4.7;;;5.9;;
74483;SDS011;62942;52.462;10.846;2023-05-16T01:06:06;4.4;;;6.8;;
74483;SDS011;62942;52.462;10.846;2023-05-16T01:07:06;4.8;;;7.8;;
74483;SDS011;62942;52.462;10.846;2023-05-16T01:08:16;4.8;;;8.2;;
74483;SDS011;62942;52.462;10.846;2023-05-16T01:09:16;4.7;;;8.7;;
74483;SDS011;62942;52.462;10.846;2023-05-16T01:10:26;4.5;;;6.7;;
74483;SDS011;62942;52.462;10.846;2023-05-16T01:11:27;4.1;;;6.3;;
74483;SDS011;62942;52.462;10.846;2023-05-16T01:12:28;4.1;;;6.9;;
74483;SDS011;62942;52.462;10.846;2023-05-16T01:13:39;4.4;;;7.1;;
74483;SDS011;62942;52.462;10.846;2023-05-16T01:14:37;3.8;;;7.3;;
74483;SDS011;62942;52.462;10.846;2023-05-16T01:15:47;3.8;;;6;;
74483;SDS011;62942;52.462;10.846;2023-05-16T01:16:47;4;;;6.8;;
74483;SDS011;62942;52.462;10.846;2023-05-16T01:17:49;3.7;;;5.6;;
74483;SDS011;62942;52.462;10.846;2023-05-16T01:19:09;3.7;;;6.2;;
74483;SDS011;62942;52.462;10.846;2023-05-16T01:19:59;3.7;;;5.4;;
74483;SDS011;62942;52.462;10.846;2023-05-16T01:20:58;3.9;;;6;;
74483;SDS011;62942;52.462;10.846;2023-05-16T01:21:58;3.8;;;7.5;;
74483;SDS011;62942;52.462;10.846;2023-05-16T01:23:12;3.5;;;6.8;;
74483;SDS011;62942;52.462;10.846;2023-05-16T01:24:08;3.5;;;6.3;;
74483;SDS011;62942;52.462;10.846;2023-05-16T01:25:10;3.7;;;8.1;;
74483;SDS011;62942;52.462;10.846;2023-05-16T01:26:17;3.4;;;6.2;;
74483;SDS011;62942;52.462;10.846;2023-05-16T01:27:16;3.5;;;5.8;;
74483;SDS011;62942;52.462;10.846;2023-05-16T01:28:16;3.4;;;5.1;;
74483;SDS011;62942;52.462;10.846;2023-05-16T01:29:16;3.6;;;6.2;;
74483;SDS011;62942;52.462;10.846;2023-05-16T01:30:17;3.5;;;6.1;;
74483;SDS011;62942;52.462;10.846;2023-05-16T01:31:16;3.4;;;5.8;;
74483;SDS011;62942;52.462;10.846;2023-05-16T01:32:26;3.6;;;5.8;;
74483;SDS011;62942;52.462;10.846;2023-05-16T01:33:36;3.5;;;5.6;;
74483;SDS011;62942;52.462;10.846;2023-05-16T01:34:36;3.6;;;6.9;;
74483;SDS011;62942;52.462;10.846;2023-05-16T01:35:38;3.5;;;7.6;;
74483;SDS011;62942;52.462;10.846;2023-05-16T01:36:47;3.3;;;6.5;;
74483;SDS011;62942;52.462;10.846;2023-05-16T01:37:57;3.7;;;8.2;;
74483;SDS011;62942;52.462;10.846;2023-05-16T01:39:07;3.3;;;5.5;;
74483;SDS011;62942;52.462;10.846;2023-05-16T01:40:07;3.3;;;5;;
74483;SDS011;62942;52.462;10.846;2023-05-16T01:41:07;3.4;;;5.8;;
74483;SDS011;62942;52.462;10.846;2023-05-16T01:42:16;3.3;;;5.8;;
74483;SDS011;62942;52.462;10.846;2023-05-16T01:43:28;3.5;;;6.9;;
74483;SDS011;62942;52.462;10.846;2023-05-16T01:44:36;3.4;;;5.8;;
74483;SDS011;62942;52.462;10.846;2023-05-16T01:45:46;3.4;;;5.4;;
74483;SDS011;62942;52.462;10.846;2023-05-16T01:46:46;3.6;;;6.8;;
74483;SDS011;62942;52.462;10.846;2023-05-16T01:47:48;3.5;;;7.1;;
74483;SDS011;62942;52.462;10.846;2023-05-16T01:48:58;3.3;;;7;;
74483;SDS011;62942;52.462;10.846;2023-05-16T01:50:07;3.5;;;6.5;;
74483;SDS011;62942;52.462;10.846;2023-05-16T01:51:06;3.3;;;5.6;;
74483;SDS011;62942;52.462;10.846;2023-05-16T01:52:07;3.3;;;5.4;;
74483;SDS011;62942;52.462;10.846;2023-05-16T01:53:18;3.4;;;6.2;;
74483;SDS011;62942;52.462;10.846;2023-05-16T01:54:28;3.4;;;7.5;;
74483;SDS011;62942;52.462;10.846;2023-05-16T01:55:28;3.4;;;6;;
74483;SDS011;62942;52.462;10.846;2023-05-16T01:56:36;3.3;;;5.8;;
74483;SDS011;62942;52.462;10.846;2023-05-16T01:57:46;3.2;;;6.1;;
74483;SDS011;62942;52.462;10.846;2023-05-16T01:58:46;3.4;;;6;;
74483;SDS011;62942;52.462;10.846;2023-05-16T01:59:56;3.5;;;7.8;;
74483;SDS011;62942;52.462;10.846;2023-05-16T02:01:06;3.4;;;5.9;;
74483;SDS011;62942;52.462;10.846;2023-05-16T02:02:06;3.2;;;5.4;;
74483;SDS011;62942;52.462;10.846;2023-05-16T02:03:06;3.4;;;6.8;;
74483;SDS011;62942;52.462;10.846;2023-05-16T02:04:16;3.2;;;6.4;;
74483;SDS011;62942;52.462;10.846;2023-05-16T02:05:16;3.4;;;6.3;;
74483;SDS011;62942;52.462;10.846;2023-05-16T02:06:16;3.4;;;5.4;;
74483;SDS011;62942;52.462;10.846;2023-05-16T02:07:26;3.3;;;6.5;;
74483;SDS011;62942;52.462;10.846;2023-05-16T02:08:26;3.3;;;7.3;;
74483;SDS011;62942;52.462;10.846;2023-05-16T02:09:36;3.3;;;7;;
74483;SDS011;62942;52.462;10.846;2023-05-16T02:10:36;3.2;;;6.6;;
74483;SDS011;62942;52.462;10.846;2023-05-16T02:11:36;3.2;;;5.8;;
74483;SDS011;62942;52.462;10.846;2023-05-16T02:12:46;3.3;;;6.1;;
74483;SDS011;62942;52.462;10.846;2023-05-16T02:13:46;3.2;;;6;;
74483;SDS011;62942;52.462;10.846;2023-05-16T02:14:46;3.2;;;6.2;;
74483;SDS011;62942;52.462;10.846;2023-05-16T02:15:56;3.5;;;6.8;;
74483;SDS011;62942;52.462;10.846;2023-05-16T02:17:06;3.3;;;5.5;;
74483;SDS011;62942;52.462;10.846;2023-05-16T02:18:16;3.2;;;6.6;;
74483;SDS011;62942;52.462;10.846;2023-05-16T02:19:26;3.4;;;4.8;;
74483;SDS011;62942;52.462;10.846;2023-05-16T02:20:36;3.5;;;7.2;;
74483;SDS011;62942;52.462;10.846;2023-05-16T02:21:36;3.3;;;6.3;;
74483;SDS011;62942;52.462;10.846;2023-05-16T02:22:36;3.4;;;6.9;;
74483;SDS011;62942;52.462;10.846;2023-05-16T02:23:36;3.4;;;6.4;;
74483;SDS011;62942;52.462;10.846;2023-05-16T02:24:37;3.3;;;5.7;;
74483;SDS011;62942;52.462;10.846;2023-05-16T02:25:46;3.5;;;6;;
74483;SDS011;62942;52.462;10.846;2023-05-16T02:26:56;3.6;;;7.7;;
74483;SDS011;62942;52.462;10.846;2023-05-16T02:28:06;3.4;;;6.4;;
74483;SDS011;62942;52.462;10.846;2023-05-16T02:29:06;3.6;;;7.5;;
74483;SDS011;62942;52.462;10.846;2023-05-16T02:30:16;3.5;;;7.7;;
74483;SDS011;62942;52.462;10.846;2023-05-16T02:31:26;3.4;;;6.2;;
74483;SDS011;62942;52.462;10.846;2023-05-16T02:32:36;3.4;;;6.4;;
74483;SDS011;62942;52.462;10.846;2023-05-16T02:33:46;3.5;;;6.5;;
74483;SDS011;62942;52.462;10.846;2023-05-16T02:34:46;3.4;;;6.3;;
74483;SDS011;62942;52.462;10.846;2023-05-16T02:35:56;3.2;;;6.5;;
74483;SDS011;62942;52.462;10.846;2023-05-16T02:37:06;3.3;;;5.5;;
74483;SDS011;62942;52.462;10.846;2023-05-16T02:38:06;3.3;;;6.1;;
74483;SDS011;62942;52.462;10.846;2023-05-16T02:39:06;3.4;;;7.8;;
74483;SDS011;62942;52.462;10.846;2023-05-16T02:40:16;3.5;;;6.5;;
74483;SDS011;62942;52.462;10.846;2023-05-16T02:41:16;3.6;;;8.7;;
74483;SDS011;62942;52.462;10.846;2023-05-16T02:42:26;3.4;;;6;;
74483;SDS011;62942;52.462;10.846;2023-05-16T02:43:36;3.4;;;5.8;;
74483;SDS011;62942;52.462;10.846;2023-05-16T02:44:36;3.2;;;5.8;;
74483;SDS011;62942;52.462;10.846;2023-05-16T02:45:36;3.4;;;6.6;;
74483;SDS011;62942;52.462;10.846;2023-05-16T02:46:36;3.6;;;6.3;;
74483;SDS011;62942;52.462;10.846;2023-05-16T02:47:46;3.5;;;7;;
74483;SDS011;62942;52.462;10.846;2023-05-16T02:48:46;3.2;;;7.4;;
74483;SDS011;62942;52.462;10.846;2023-05-16T02:49:46;3.3;;;6.1;;
74483;SDS011;62942;52.462;10.846;2023-05-16T02:50:56;3.1;;;5.4;;
74483;SDS011;62942;52.462;10.846;2023-05-16T02:52:06;3.4;;;7.8;;
74483;SDS011;62942;52.462;10.846;2023-05-16T02:53:16;3.6;;;7.6;;
74483;SDS011;62942;52.462;10.846;2023-05-16T02:54:16;3.5;;;8.1;;
74483;SDS011;62942;52.462;10.846;2023-05-16T02:55:26;3.1;;;6.1;;
74483;SDS011;62942;52.462;10.846;2023-05-16T02:56:26;3.2;;;6.3;;
74483;SDS011;62942;52.462;10.846;2023-05-16T02:57:26;3.5;;;6.7;;
74483;SDS011;62942;52.462;10.846;2023-05-16T02:58:36;3.2;;;6.2;;
74483;SDS011;62942;52.462;10.846;2023-05-16T02:59:36;2.9;;;6.1;;
74483;SDS011;62942;52.462;10.846;2023-05-16T03:00:46;3;;;6.9;;
74483;SDS011;62942;52.462;10.846;2023-05-16T03:01:46;3.1;;;6.5;;
74483;SDS011;62942;52.462;10.846;2023-05-16T03:02:56;3.1;;;6.4;;
74483;SDS011;62942;52.462;10.846;2023-05-16T03:03:56;3.1;;;5.7;;
74483;SDS011;62942;52.462;10.846;2023-05-16T03:04:56;3.1;;;6.2;;
74483;SDS011;62942;52.462;10.846;2023-05-16T03:06:06;3.1;;;6.8;;
74483;SDS011;62942;52.462;10.846;2023-05-16T03:07:06;3.2;;;7.4;;
74483;SDS011;62942;52.462;10.846;2023-05-16T03:08:06;3.1;;;6.6;;
74483;SDS011;62942;52.462;10.846;2023-05-16T03:09:16;3.1;;;6.6;;
74483;SDS011;62942;52.462;10.846;2023-05-16T03:10:16;3.2;;;7;;
74483;SDS011;62942;52.462;10.846;2023-05-16T03:11:16;3;;;5.9;;
74483;SDS011;62942;52.462;10.846;2023-05-16T03:12:16;3.2;;;8.3;;
74483;SDS011;62942;52.462;10.846;2023-05-16T03:13:26;3.1;;;7.2;;
74483;SDS011;62942;52.462;10.846;2023-05-16T03:14:36;3.1;;;7.1;;
74483;SDS011;62942;52.462;10.846;2023-05-16T03:15:46;2.9;;;6.9;;
74483;SDS011;62942;52.462;10.846;2023-05-16T03:16:46;2.9;;;6.2;;
74483;SDS011;62942;52.462;10.846;2023-05-16T03:17:56;3.2;;;8;;
74483;SDS011;62942;52.462;10.846;2023-05-16T03:18:56;2.9;;;7.5;;
74483;SDS011;62942;52.462;10.846;2023-05-16T03:19:56;3;;;5.9;;
74483;SDS011;62942;52.462;10.846;2023-05-16T03:21:06;2.9;;;8.8;;
74483;SDS011;62942;52.462;10.846;2023-05-16T03:22:06;2.6;;;5.2;;
74483;SDS011;62942;52.462;10.846;2023-05-16T03:23:16;2.5;;;5.8;;
74483;SDS011;62942;52.462;10.846;2023-05-16T03:24:16;2.5;;;5.6;;
74483;SDS011;62942;52.462;10.846;2023-05-16T03:25:16;2.6;;;6.3;;
74483;SDS011;62942;52.462;10.846;2023-05-16T03:26:16;2.6;;;6.1;;
74483;SDS011;62942;52.462;10.846;2023-05-16T03:27:16;2.6;;;5.1;;
74483;SDS011;62942;52.462;10.846;2023-05-16T03:28:16;2.8;;;6;;
74483;SDS011;62942;52.462;10.846;2023-05-16T03:29:16;2.6;;;6.6;;
74483;SDS011;62942;52.462;10.846;2023-05-16T03:30:26;2.3;;;4.8;;
74483;SDS011;62942;52.462;10.846;2023-05-16T03:31:36;2.4;;;4.9;;
74483;SDS011;62942;52.462;10.846;2023-05-16T03:32:46;2.4;;;5.3;;
74483;SDS011;62942;52.462;10.846;2023-05-16T03:33:56;2.4;;;6.2;;
74483;SDS011;62942;52.462;10.846;2023-05-16T03:35:06;2.4;;;4.6;;
74483;SDS011;62942;52.462;10.846;2023-05-16T03:36:06;2.4;;;4.6;;
74483;SDS011;62942;52.462;10.846;2023-05-16T03:37:16;2.4;;;5;;
74483;SDS011;62942;52.462;10.846;2023-05-16T03:38:16;2.3;;;5;;
74483;SDS011;62942;52.462;10.846;2023-05-16T03:39:26;2.5;;;6.4;;
74483;SDS011;62942;52.462;10.846;2023-05-16T03:40:36;2.4;;;5.7;;
74483;SDS011;62942;52.462;10.846;2023-05-16T03:41:46;2.6;;;5.1;;
74483;SDS011;62942;52.462;10.846;2023-05-16T03:42:56;2.4;;;5.4;;
74483;SDS011;62942;52.462;10.846;2023-05-16T03:43:56;2.3;;;5.2;;
74483;SDS011;62942;52.462;10.846;2023-05-16T03:45:06;2.3;;;4.8;;
74483;SDS011;62942;52.462;10.846;2023-05-16T03:46:06;2.3;;;5.2;;
74483;SDS011;62942;52.462;10.846;2023-05-16T03:47:16;2.5;;;5.6;;
74483;SDS011;62942;52.462;10.846;2023-05-16T03:48:26;2.3;;;5.3;;
74483;SDS011;62942;52.462;10.846;2023-05-16T03:49:26;2.3;;;6.1;;
74483;SDS011;62942;52.462;10.846;2023-05-16T03:50:36;2.5;;;5.4;;
74483;SDS011;62942;52.462;10.846;2023-05-16T03:51:46;2.7;;;6.8;;
74483;SDS011;62942;52.462;10.846;2023-05-16T03:52:46;2.2;;;4.9;;
74483;SDS011;62942;52.462;10.846;2023-05-16T03:53:46;2.2;;;6.7;;
74483;SDS011;62942;52.462;10.846;2023-05-16T03:54:56;2.2;;;5.7;;
74483;SDS011;62942;52.462;10.846;2023-05-16T03:55:56;2.4;;;6.2;;
74483;SDS011;62942;52.462;10.846;2023-05-16T03:56:56;2.2;;;5.4;;
74483;SDS011;62942;52.462;10.846;2023-05-16T03:58:06;2.1;;;6.6;;
74483;SDS011;62942;52.462;10.846;2023-05-16T03:59:06;2.1;;;5.7;;
74483;SDS011;62942;52.462;10.846;2023-05-16T04:00:16;2.2;;;6.3;;
74483;SDS011;62942;52.462;10.846;2023-05-16T04:01:16;2.1;;;5.9;;
74483;SDS011;62942;52.462;10.846;2023-05-16T04:02:26;2.3;;;6.4;;
74483;SDS011;62942;52.462;10.846;2023-05-16T04:03:26;2.3;;;5.9;;
74483;SDS011;62942;52.462;10.846;2023-05-16T04:04:26;2;;;4.2;;
74483;SDS011;62942;52.462;10.846;2023-05-16T04:05:36;2.2;;;6;;
74483;SDS011;62942;52.462;10.846;2023-05-16T04:06:36;2.3;;;5.5;;
74483;SDS011;62942;52.462;10.846;2023-05-16T04:07:36;2.3;;;5.5;;
74483;SDS011;62942;52.462;10.846;2023-05-16T04:08:36;2.3;;;4.7;;
74483;SDS011;62942;52.462;10.846;2023-05-16T04:09:46;2.2;;;5.1;;
74483;SDS011;62942;52.462;10.846;2023-05-16T04:10:56;2.3;;;6.4;;
74483;SDS011;62942;52.462;10.846;2023-05-16T04:11:56;2;;;5.1;;
74483;SDS011;62942;52.462;10.846;2023-05-16T04:12:56;2.1;;;4.6;;
74483;SDS011;62942;52.462;10.846;2023-05-16T04:13:56;2;;;4.7;;
74483;SDS011;62942;52.462;10.846;2023-05-16T04:15:06;2.2;;;5;;
74483;SDS011;62942;52.462;10.846;2023-05-16T04:16:06;2.2;;;4.9;;
74483;SDS011;62942;52.462;10.846;2023-05-16T04:17:16;2.1;;;5.1;;
74483;SDS011;62942;52.462;10.846;2023-05-16T04:18:16;2.3;;;5.5;;
74483;SDS011;62942;52.462;10.846;2023-05-16T04:19:26;2.2;;;6.1;;
74483;SDS011;62942;52.462;10.846;2023-05-16T04:20:26;2.2;;;6.6;;
74483;SDS011;62942;52.462;10.846;2023-05-16T04:21:36;2;;;4.6;;
74483;SDS011;62942;52.462;10.846;2023-05-16T04:22:36;2.2;;;5.3;;
74483;SDS011;62942;52.462;10.846;2023-05-16T04:23:46;2.1;;;4.8;;
74483;SDS011;62942;52.462;10.846;2023-05-16T04:24:56;2.2;;;5.2;;
74483;SDS011;62942;52.462;10.846;2023-05-16T04:25:56;2;;;4.8;;
74483;SDS011;62942;52.462;10.846;2023-05-16T04:26:56;2;;;4.9;;
74483;SDS011;62942;52.462;10.846;2023-05-16T04:27:56;2.5;;;5.6;;
74483;SDS011;62942;52.462;10.846;2023-05-16T04:28:56;2.1;;;4.7;;
74483;SDS011;62942;52.462;10.846;2023-05-16T04:29:56;2.2;;;5.6;;
74483;SDS011;62942;52.462;10.846;2023-05-16T04:31:06;2.2;;;6;;
74483;SDS011;62942;52.462;10.846;2023-05-16T04:32:16;2.4;;;5.8;;
74483;SDS011;62942;52.462;10.846;2023-05-16T04:33:26;2.3;;;6.8;;
74483;SDS011;62942;52.462;10.846;2023-05-16T04:34:26;2;;;4.3;;
74483;SDS011;62942;52.462;10.846;2023-05-16T04:35:36;2.1;;;4.8;;
74483;SDS011;62942;52.462;10.846;2023-05-16T04:36:36;2.3;;;6.2;;
74483;SDS011;62942;52.462;10.846;2023-05-16T04:37:36;2.1;;;4.7;;
74483;SDS011;62942;52.462;10.846;2023-05-16T04:38:36;2.1;;;4.6;;
74483;SDS011;62942;52.462;10.846;2023-05-16T04:39:36;1.9;;;5.6;;
74483;SDS011;62942;52.462;10.846;2023-05-16T04:40:46;2;;;6.5;;
74483;SDS011;62942;52.462;10.846;2023-05-16T04:41:46;2.2;;;5.3;;
74483;SDS011;62942;52.462;10.846;2023-05-16T04:42:46;2.3;;;6.5;;
74483;SDS011;62942;52.462;10.846;2023-05-16T04:43:46;2.3;;;5.6;;
74483;SDS011;62942;52.462;10.846;2023-05-16T04:44:56;2.5;;;7.4;;
74483;SDS011;62942;52.462;10.846;2023-05-16T04:45:56;2.3;;;5.5;;
74483;SDS011;62942;52.462;10.846;2023-05-16T04:46:56;2.2;;;7.1;;
74483;SDS011;62942;52.462;10.846;2023-05-16T04:47:56;2.4;;;5.8;;
74483;SDS011;62942;52.462;10.846;2023-05-16T04:49:06;2.3;;;5.2;;
74483;SDS011;62942;52.462;10.846;2023-05-16T04:50:06;2.2;;;5.5;;
74483;SDS011;62942;52.462;10.846;2023-05-16T04:51:16;2.5;;;5.8;;
74483;SDS011;62942;52.462;10.846;2023-05-16T04:52:16;2.4;;;6.1;;
74483;SDS011;62942;52.462;10.846;2023-05-16T04:53:26;2.7;;;7.1;;
74483;SDS011;62942;52.462;10.846;2023-05-16T04:54:26;2.4;;;5.9;;
74483;SDS011;62942;52.462;10.846;2023-05-16T04:55:26;2.3;;;6.2;;
74483;SDS011;62942;52.462;10.846;2023-05-16T04:56:36;2.4;;;7.3;;
74483;SDS011;62942;52.462;10.846;2023-05-16T04:57:36;2.3;;;7.2;;
74483;SDS011;62942;52.462;10.846;2023-05-16T04:58:36;1.9;;;6.2;;
74483;SDS011;62942;52.462;10.846;2023-05-16T04:59:46;2.2;;;7.3;;
74483;SDS011;62942;52.462;10.846;2023-05-16T05:00:46;2.3;;;6.2;;
74483;SDS011;62942;52.462;10.846;2023-05-16T05:01:56;2.2;;;5.8;;
74483;SDS011;62942;52.462;10.846;2023-05-16T05:03:06;2.2;;;5.9;;
74483;SDS011;62942;52.462;10.846;2023-05-16T05:04:06;2.1;;;7.5;;
74483;SDS011;62942;52.462;10.846;2023-05-16T05:05:16;2;;;5.9;;
74483;SDS011;62942;52.462;10.846;2023-05-16T05:06:16;2;;;5.8;;
74483;SDS011;62942;52.462;10.846;2023-05-16T05:07:26;2;;;4.8;;
74483;SDS011;62942;52.462;10.846;2023-05-16T05:08:36;1.9;;;7.8;;
74483;SDS011;62942;52.462;10.846;2023-05-16T05:09:46;1.8;;;5.8;;
74483;SDS011;62942;52.462;10.846;2023-05-16T05:10:46;1.9;;;6.3;;
74483;SDS011;62942;52.462;10.846;2023-05-16T05:11:56;2;;;5.6;;
74483;SDS011;62942;52.462;10.846;2023-05-16T05:13:06;2.1;;;7.4;;
74483;SDS011;62942;52.462;10.846;2023-05-16T05:14:06;1.9;;;5.4;;
74483;SDS011;62942;52.462;10.846;2023-05-16T05:15:16;1.8;;;5.2;;
74483;SDS011;62942;52.462;10.846;2023-05-16T05:16:16;1.8;;;5.3;;
74483;SDS011;62942;52.462;10.846;2023-05-16T05:17:26;1.8;;;5.6;;
74483;SDS011;62942;52.462;10.846;2023-05-16T05:18:36;2;;;6.1;;
74483;SDS011;62942;52.462;10.846;2023-05-16T05:19:36;1.8;;;5.3;;
74483;SDS011;62942;52.462;10.846;2023-05-16T05:20:46;1.8;;;7.9;;
74483;SDS011;62942;52.462;10.846;2023-05-16T05:21:46;2;;;8.9;;
74483;SDS011;62942;52.462;10.846;2023-05-16T05:22:56;2.1;;;8.5;;
74483;SDS011;62942;52.462;10.846;2023-05-16T05:23:56;1.7;;;6.8;;
74483;SDS011;62942;52.462;10.846;2023-05-16T05:25:06;2;;;7.2;;
74483;SDS011;62942;52.462;10.846;2023-05-16T05:26:16;1.9;;;8.1;;
74483;SDS011;62942;52.462;10.846;2023-05-16T05:27:26;1.9;;;7.2;;
74483;SDS011;62942;52.462;10.846;2023-05-16T05:28:26;1.9;;;7.1;;
74483;SDS011;62942;52.462;10.846;2023-05-16T05:29:36;1.8;;;7;;
74483;SDS011;62942;52.462;10.846;2023-05-16T05:30:46;2;;;9.9;;
74483;SDS011;62942;52.462;10.846;2023-05-16T05:31:56;2;;;9;;
74483;SDS011;62942;52.462;10.846;2023-05-16T05:32:56;1.8;;;7.7;;
74483;SDS011;62942;52.462;10.846;2023-05-16T05:34:06;2.4;;;7.9;;
74483;SDS011;62942;52.462;10.846;2023-05-16T05:35:06;1.5;;;6.2;;
74483;SDS011;62942;52.462;10.846;2023-05-16T05:36:16;1.9;;;9;;
74483;SDS011;62942;52.462;10.846;2023-05-16T05:37:26;2.3;;;8.1;;
74483;SDS011;62942;52.462;10.846;2023-05-16T05:38:26;2;;;8.2;;
74483;SDS011;62942;52.462;10.846;2023-05-16T05:39:36;1.8;;;8.1;;
74483;SDS011;62942;52.462;10.846;2023-05-16T05:40:46;2;;;7.9;;
74483;SDS011;62942;52.462;10.846;2023-05-16T05:41:56;2.1;;;8.5;;
74483;SDS011;62942;52.462;10.846;2023-05-16T05:42:56;1.7;;;6.7;;
74483;SDS011;62942;52.462;10.846;2023-05-16T05:44:06;1.9;;;7.9;;
74483;SDS011;62942;52.462;10.846;2023-05-16T05:45:06;1.8;;;8.6;;
74483;SDS011;62942;52.462;10.846;2023-05-16T05:46:16;1.9;;;10.1;;
74483;SDS011;62942;52.462;10.846;2023-05-16T05:47:26;1.9;;;8.6;;
74483;SDS011;62942;52.462;10.846;2023-05-16T05:48:26;1.9;;;8.1;;
74483;SDS011;62942;52.462;10.846;2023-05-16T05:49:36;1.8;;;8.2;;
74483;SDS011;62942;52.462;10.846;2023-05-16T05:50:46;2;;;9.5;;
74483;SDS011;62942;52.462;10.846;2023-05-16T05:51:46;1.9;;;8.9;;
74483;SDS011;62942;52.462;10.846;2023-05-16T05:52:56;2.2;;;8.9;;
74483;SDS011;62942;52.462;10.846;2023-05-16T05:54:06;1.8;;;8.2;;
74483;SDS011;62942;52.462;10.846;2023-05-16T05:55:16;2;;;8.3;;
74483;SDS011;62942;52.462;10.846;2023-05-16T05:56:26;1.7;;;8.1;;
74483;SDS011;62942;52.462;10.846;2023-05-16T05:57:36;2;;;9.1;;
74483;SDS011;62942;52.462;10.846;2023-05-16T05:58:36;2;;;8.2;;
74483;SDS011;62942;52.462;10.846;2023-05-16T05:59:46;1.8;;;8.9;;
74483;SDS011;62942;52.462;10.846;2023-05-16T06:00:56;2;;;8.9;;
74483;SDS011;62942;52.462;10.846;2023-05-16T06:01:56;1.9;;;7.8;;
74483;SDS011;62942;52.462;10.846;2023-05-16T06:03:06;2;;;9.2;;
74483;SDS011;62942;52.462;10.846;2023-05-16T06:04:06;1.9;;;8.8;;
74483;SDS011;62942;52.462;10.846;2023-05-16T06:05:16;1.9;;;9.3;;
74483;SDS011;62942;52.462;10.846;2023-05-16T06:06:26;1.7;;;8.1;;
74483;SDS011;62942;52.462;10.846;2023-05-16T06:07:26;2;;;11.2;;
74483;SDS011;62942;52.462;10.846;2023-05-16T06:08:36;1.9;;;9.4;;
74483;SDS011;62942;52.462;10.846;2023-05-16T06:09:46;1.9;;;9.9;;
74483;SDS011;62942;52.462;10.846;2023-05-16T06:10:56;2.1;;;11.4;;
74483;SDS011;62942;52.462;10.846;2023-05-16T06:11:56;2.2;;;9.5;;
74483;SDS011;62942;52.462;10.846;2023-05-16T06:13:06;2;;;9.2;;
74483;SDS011;62942;52.462;10.846;2023-05-16T06:14:16;1.9;;;8.4;;
74483;SDS011;62942;52.462;10.846;2023-05-16T06:15:26;1.8;;;8.8;;
74483;SDS011;62942;52.462;10.846;2023-05-16T06:16:36;1.9;;;9.2;;
74483;SDS011;62942;52.462;10.846;2023-05-16T06:17:45;2;;;9.6;;
74483;SDS011;62942;52.462;10.846;2023-05-16T06:18:56;1.8;;;7.7;;
74483;SDS011;62942;52.462;10.846;2023-05-16T06:20:06;1.8;;;8.5;;
74483;SDS011;62942;52.462;10.846;2023-05-16T06:21:06;2;;;10.6;;
74483;SDS011;62942;52.462;10.846;2023-05-16T06:22:06;2;;;7.6;;
74483;SDS011;62942;52.462;10.846;2023-05-16T06:23:15;1.9;;;9.2;;
74483;SDS011;62942;52.462;10.846;2023-05-16T06:24:25;1.9;;;9.2;;
74483;SDS011;62942;52.462;10.846;2023-05-16T06:25:26;1.8;;;10.5;;
74483;SDS011;62942;52.462;10.846;2023-05-16T06:26:35;2;;;9.3;;
74483;SDS011;62942;52.462;10.846;2023-05-16T06:27:36;2.2;;;11.5;;
74483;SDS011;62942;52.462;10.846;2023-05-16T06:28:46;1.9;;;9.6;;
74483;SDS011;62942;52.462;10.846;2023-05-16T06:29:55;2.2;;;10.3;;
74483;SDS011;62942;52.462;10.846;2023-05-16T06:30:56;2.2;;;9.9;;
74483;SDS011;62942;52.462;10.846;2023-05-16T06:32:06;2.2;;;10;;
74483;SDS011;62942;52.462;10.846;2023-05-16T06:33:16;2;;;9.7;;
74483;SDS011;62942;52.462;10.846;2023-05-16T06:34:25;1.8;;;7.8;;
74483;SDS011;62942;52.462;10.846;2023-05-16T06:35:36;2.1;;;9.1;;
74483;SDS011;62942;52.462;10.846;2023-05-16T06:36:45;2;;;9.5;;
74483;SDS011;62942;52.462;10.846;2023-05-16T06:37:46;2.1;;;9.5;;
74483;SDS011;62942;52.462;10.846;2023-05-16T06:38:55;2;;;9.4;;
74483;SDS011;62942;52.462;10.846;2023-05-16T06:40:06;1.9;;;7.3;;
74483;SDS011;62942;52.462;10.846;2023-05-16T06:41:06;2.1;;;10.6;;